Time;durP1;ratioP1;P1;durP2;ratioP2;P2;SDS_P1;SDS_P2;PMS_P1;PMS_P2;Temp;Humidity;BMP_temperature;BMP_pressure;BME280_temperature;BME280_humidity;BME280_pressure;Samples;Min_cycle;Max_cycle;Signal;HPM_P1;HPM_P2
2021/12/08 00:01:22;;;;;;;64.03;34.67;;;;;;;0.75;91.23;96673.38;10288625;28;20062;-58
2021/12/08 00:06:22;;;;;;;25.77;15.98;;;;;;;0.78;91.16;96678.56;10289129;28;20054;-59
2021/12/08 00:16:38;;;;;;;28.20;17.60;;;;;;;0.83;91.23;96701.66;10296128;28;19957;-59
2021/12/08 00:21:37;;;;;;;22.75;14.52;;;;;;;0.73;91.19;96682.69;10294655;28;20522;-59
2021/12/08 00:26:36;;;;;;;31.85;20.23;;;;;;;0.81;91.37;96705.88;10295518;28;20552;-59
2021/12/08 00:31:35;;;;;;;33.95;21.42;;;;;;;0.33;90.99;96630.84;10293692;28;20533;-59
2021/12/08 00:36:42;;;;;;;56.03;30.23;;;;;;;0.42;90.99;96651.44;10295648;28;20479;-59
2021/12/08 00:41:41;;;;;;;58.20;33.33;;;;;;;0.82;90.76;96713.53;10295056;28;20058;-59
2021/12/08 00:46:40;;;;;;;65.28;38.55;;;;;;;0.82;90.90;96718.63;10295056;28;20057;-59
2021/12/08 00:51:39;;;;;;;54.65;32.85;;;;;;;0.67;91.02;96695.38;10295252;28;20085;-59
2021/12/08 00:56:38;;;;;;;;;;;;;;;0.63;91.11;96716.53;10295413;28;20483;-59
2021/12/08 01:01:38;;;;;;;42.88;27.00;;;;;;;0.49;91.71;96713.69;10294345;28;20311;-59
2021/12/08 01:06:38;;;;;;;44.60;28.20;;;;;;;0.52;91.43;96728.22;10293383;28;20468;-59
2021/12/08 01:11:37;;;;;;;48.10;30.40;;;;;;;0.46;91.62;96713.66;10294598;28;20492;-59
2021/12/08 01:16:36;;;;;;;41.58;25.00;;;;;;;0.53;91.83;96723.16;10294315;28;20614;-59
2021/12/08 01:21:36;;;;;;;42.63;27.70;;;;;;;0.55;91.44;96725.75;10293165;28;20506;-59
2021/12/08 01:26:35;;;;;;;47.30;28.35;;;;;;;0.25;91.57;96678.31;10293723;28;20061;-59
2021/12/08 01:31:36;;;;;;;45.30;28.20;;;;;;;0.46;91.54;96708.53;10293763;28;20030;-59
2021/12/08 01:36:36;;;;;;;43.45;26.80;;;;;;;0.66;91.67;96740.47;10293109;28;20077;-59
2021/12/08 01:41:35;;;;;;;39.67;25.52;;;;;;;0.68;91.73;96743.03;10293061;28;20495;-59
2021/12/08 01:46:34;;;;;;;28.30;17.25;;;;;;;0.04;91.26;96643.84;10292847;28;20054;-59
2021/12/08 01:51:34;;;;;;;30.63;18.50;;;;;;;0.68;91.63;96745.59;10292569;28;20081;-59
2021/12/08 01:56:34;;;;;;;40.22;24.17;;;;;;;0.73;91.86;96743.13;10292998;28;20065;-59
2021/12/08 02:01:36;;;;;;;43.80;26.45;;;;;;;0.72;91.63;96743.97;10290594;28;20472;-59
2021/12/08 02:06:38;;;;;;;41.97;25.65;;;;;;;0.72;91.47;96746.53;10292032;28;20061;-59
2021/12/08 02:11:39;;;;;;;41.75;25.73;;;;;;;0.70;91.48;96754.13;10290567;28;20077;-59
2021/12/08 02:16:38;;;;;;;35.35;21.65;;;;;;;0.69;91.44;96755.00;10291245;28;20116;-59
2021/12/08 02:21:40;;;;;;;32.95;19.25;;;;;;;0.71;91.54;96761.00;10291807;28;20036;-59
2021/12/08 02:26:42;;;;;;;29.58;18.25;;;;;;;0.73;91.54;96763.56;10291762;28;20065;-59
2021/12/08 02:31:57;;;;;;;31.90;18.65;;;;;;;0.77;91.61;96770.47;10290566;28;20065;-59
2021/12/08 02:52:49;;;;;;;37.95;22.10;;;;;;;0.45;91.65;96737.41;10291122;28;20077;-59
2021/12/08 02:57:48;;;;;;;49.85;29.17;;;;;;;0.77;91.55;96790.88;10290448;28;20080;-59
2021/12/08 03:02:47;;;;;;;62.67;34.83;;;;;;;0.76;91.14;96800.25;10290668;28;20046;-58
2021/12/08 03:07:47;;;;;;;98.45;53.35;;;;;;;0.69;91.27;96794.13;10289850;28;20379;-59
2021/12/08 03:12:46;;;;;;;122.80;62.10;;;;;;;0.34;91.28;96752.50;10289988;28;20483;-59
2021/12/08 03:17:45;;;;;;;101.57;55.42;;;;;;;0.48;90.96;96776.66;10290456;28;20065;-59
2021/12/08 03:22:47;;;;;;;66.20;41.80;;;;;;;0.65;91.02;96817.88;10289988;28;20493;-59
2021/12/08 03:28:05;;;;;;;56.53;32.80;;;;;;;0.59;90.88;96816.88;10289671;28;20053;-59
2021/12/08 03:33:04;;;;;;;58.22;33.83;;;;;;;0.59;90.85;96825.41;10290123;28;20065;-59
2021/12/08 03:38:03;;;;;;;;;;;;;;;0.56;90.88;96830.44;10289897;28;20125;-59
2021/12/08 03:43:02;;;;;;;54.65;28.90;;;;;;;0.51;90.95;96824.34;10290041;28;20334;-59
2021/12/08 03:48:11;;;;;;;46.28;26.98;;;;;;;0.47;91.02;96836.19;10297570;28;20058;-59
2021/12/08 03:53:13;;;;;;;54.50;30.20;;;;;;;0.50;90.99;96832.84;10296785;28;20095;-59
2021/12/08 03:58:13;;;;;;;45.45;25.48;;;;;;;0.58;91.12;96845.78;10297003;28;20351;-59
2021/12/08 04:03:12;;;;;;;52.63;26.38;;;;;;;0.06;90.86;96776.53;10297116;28;20502;-59
2021/12/08 04:08:19;;;;;;;53.38;27.15;;;;;;;0.53;90.94;96853.34;10296588;28;20476;-59
2021/12/08 04:13:23;;;;;;;42.72;22.77;;;;;;;0.51;91.05;96849.03;10296293;28;20061;-59
2021/12/08 04:18:22;;;;;;;53.55;28.00;;;;;;;0.56;91.07;96845.75;10296873;28;20076;-59
2021/12/08 04:23:23;;;;;;;57.42;28.42;;;;;;;0.62;90.81;96850.16;10295943;28;20488;-59
2021/12/08 04:28:29;;;;;;;43.05;24.38;;;;;;;0.71;90.79;96859.69;10295638;28;20487;-59
2021/12/08 04:33:28;;;;;;;39.95;20.13;;;;;;;0.37;90.53;96801.06;10295799;28;20065;-59
2021/12/08 04:38:36;;;;;;;35.85;20.40;;;;;;;0.85;90.53;96865.97;10295022;28;20113;-59
2021/12/08 05:05:16;;;;;;;56.92;31.00;;;;;;;1.02;90.42;96885.09;10294183;28;20521;-59
2021/12/08 05:10:22;;;;;;;57.67;32.58;;;;;;;1.02;90.33;96890.22;10293281;28;20119;-59
2021/12/08 05:15:29;;;;;;;68.28;36.33;;;;;;;0.98;90.38;96877.34;10294056;28;20061;-59
2021/12/08 05:20:46;;;;;;;65.25;34.60;;;;;;;1.11;90.39;96904.91;10293713;28;20455;-59
2021/12/08 05:25:46;;;;;;;58.28;32.95;;;;;;;1.10;90.21;96903.16;10293493;28;20069;-59
2021/12/08 05:31:11;;;;;;;99.50;45.45;;;;;;;1.10;90.10;96903.16;10293880;28;20061;-59
2021/12/08 05:36:12;;;;;;;113.72;55.05;;;;;;;1.03;90.68;96911.50;10293029;28;20061;-59
2021/12/08 05:41:33;;;;;;;190.20;102.10;;;;;;;1.01;90.86;96923.38;10292811;28;20065;-59
2021/12/08 05:46:35;;;;;;;136.73;77.60;;;;;;;0.98;90.44;96928.44;10298907;28;20057;-59
2021/12/08 05:51:35;;;;;;;117.47;69.88;;;;;;;0.82;90.86;96933.16;10301107;28;20486;-59
2021/12/08 05:56:35;;;;;;;127.30;75.05;;;;;;;0.72;90.93;96938.88;10287786;28;20577;-59
2021/12/08 06:01:51;;;;;;;339.05;145.20;;;;;;;0.36;90.95;96893.78;10292030;28;20049;-59
2021/12/08 06:06:51;;;;;;;114.00;68.63;;;;;;;0.10;91.00;96859.06;10289941;28;20487;-59
2021/12/08 06:11:51;;;;;;;131.38;73.63;;;;;;;0.65;91.70;96940.44;10291584;28;20064;-59
2021/12/08 06:16:51;;;;;;;120.05;70.25;;;;;;;0.72;91.61;96954.22;10289965;28;20216;-59
2021/12/08 06:21:51;;;;;;;122.65;72.85;;;;;;;0.83;91.70;96965.56;10287819;28;20521;-59
2021/12/08 06:26:52;;;;;;;121.88;69.68;;;;;;;0.90;91.64;96967.44;10264567;28;20077;-59
2021/12/08 06:31:55;;;;;;;113.15;68.40;;;;;;;1.01;91.73;96974.47;10290820;28;20534;-59
2021/12/08 06:37:03;;;;;;;119.72;77.13;;;;;;;0.78;91.68;96921.16;10283761;28;20076;-59
2021/12/08 06:42:09;;;;;;;171.63;102.68;;;;;;;1.10;91.57;96978.09;10288984;28;20058;-59
2021/12/08 06:47:16;;;;;;;123.78;79.18;;;;;;;1.11;91.39;96986.66;10289858;28;20088;-59
2021/12/08 06:52:23;;;;;;;158.45;93.57;;;;;;;1.16;91.53;96990.19;10288357;28;20077;-59
2021/12/08 06:57:33;;;;;;;115.22;71.75;;;;;;;1.13;91.14;96997.78;10288354;28;20157;-59
2021/12/08 07:03:02;;;;;;;;;;;;;;;1.20;91.35;97002.22;10287617;28;20057;-59
2021/12/08 07:07:52;;;;;;;171.43;107.68;;;;;;;1.21;91.58;97009.03;10286203;28;19963;-59
2021/12/08 07:12:57;;;;;;;252.98;148.43;;;;;;;1.29;91.45;97007.53;10286781;28;20057;-59
2021/12/08 07:18:00;;;;;;;149.23;94.63;;;;;;;1.47;91.10;97006.22;10267116;28;20117;-59
2021/12/08 07:23:01;;;;;;;157.00;101.80;;;;;;;1.71;90.53;97006.72;10272976;28;20519;-59
2021/12/08 07:28:00;;;;;;;108.32;72.30;;;;;;;1.73;89.93;97001.66;10288085;28;20076;-60
2021/12/08 07:32:59;;;;;;;100.30;61.47;;;;;;;1.91;90.25;97003.75;10287948;28;20061;-59
2021/12/08 07:37:59;;;;;;;87.57;57.17;;;;;;;1.98;90.45;97005.59;10288524;28;20057;-59
2021/12/08 07:43:02;;;;;;;83.90;54.63;;;;;;;2.21;89.57;97010.31;10288640;28;20068;-59
2021/12/08 07:48:05;;;;;;;75.25;50.42;;;;;;;2.23;90.62;97017.22;10288963;28;20338;-59
2021/12/08 07:53:07;;;;;;;66.70;44.70;;;;;;;2.33;90.97;97008.00;10287883;28;20081;-59
2021/12/08 07:58:11;;;;;;;48.00;32.22;;;;;;;2.39;90.32;97008.09;10288739;28;20061;-59
2021/12/08 08:03:12;;;;;;;48.53;32.30;;;;;;;2.36;90.71;96990.13;10287960;28;20065;-59
2021/12/08 08:08:13;;;;;;;119.00;80.93;;;;;;;2.64;89.50;97026.50;10285675;28;20050;-59
2021/12/08 08:13:14;;;;;;;114.55;81.97;;;;;;;2.61;88.78;97026.47;10277007;28;20511;-59
2021/12/08 08:18:18;;;;;;;114.25;83.47;;;;;;;2.67;87.81;97031.66;10287921;28;20057;-59
2021/12/08 08:23:24;;;;;;;91.72;64.68;;;;;;;2.26;86.99;96962.66;10254171;28;20057;-59
2021/12/08 08:28:23;;;;;;;111.85;77.40;;;;;;;2.55;88.32;97035.72;10249028;28;20064;-59
2021/12/08 08:33:24;;;;;;;95.72;66.30;;;;;;;2.58;88.62;97040.03;10252983;28;20062;-59
2021/12/08 08:38:28;;;;;;;102.05;63.38;;;;;;;2.64;88.67;97047.84;10272463;28;20487;-59
2021/12/08 08:43:27;;;;;;;79.03;55.88;;;;;;;2.65;87.96;97046.16;10293423;28;20496;-59
2021/12/08 08:48:34;;;;;;;81.47;54.60;;;;;;;2.68;88.43;97048.78;10294617;28;20505;-58
2021/12/08 08:53:36;;;;;;;69.50;49.35;;;;;;;2.73;88.57;97039.47;10294775;28;20084;-59
2021/12/08 08:58:37;;;;;;;79.53;52.17;;;;;;;2.69;87.59;97033.41;10285303;28;20511;-59
2021/12/08 09:03:38;;;;;;;110.88;70.80;;;;;;;2.72;87.52;97024.94;10294493;28;20064;-59
2021/12/08 09:08:39;;;;;;;77.70;48.25;;;;;;;2.72;87.48;97013.00;10294574;28;20054;-59
2021/12/08 09:14:05;;;;;;;118.22;77.95;;;;;;;2.93;85.85;97012.53;10294757;28;20053;-59
2021/12/08 09:19:15;;;;;;;69.07;45.03;;;;;;;2.96;86.13;97020.25;10291478;28;20069;-59
2021/12/08 09:24:27;;;;;;;78.32;53.65;;;;;;;2.66;86.76;96958.25;10292430;28;20062;-59
2021/12/08 09:29:30;;;;;;;90.28;62.53;;;;;;;3.10;87.58;96999.97;10294152;28;20057;-59
2021/12/08 09:34:36;;;;;;;121.15;85.55;;;;;;;2.94;87.32;96954.44;10292516;28;20062;-59
2021/12/08 09:39:46;;;;;;;172.77;123.07;;;;;;;3.51;85.66;97011.69;10293186;28;20058;-59
2021/12/08 09:44:55;;;;;;;147.20;106.72;;;;;;;3.66;85.49;97001.66;10292095;28;20084;-59
2021/12/08 09:49:54;;;;;;;139.27;101.80;;;;;;;3.81;84.59;96981.31;10292693;28;20068;-59
2021/12/08 09:54:59;;;;;;;131.82;97.35;;;;;;;3.99;84.09;97008.09;10292968;28;20073;-59
2021/12/08 09:59:59;;;;;;;121.50;90.13;;;;;;;3.86;85.46;96989.94;10292549;28;20080;-59
2021/12/08 10:05:07;;;;;;;107.50;74.95;;;;;;;4.00;85.51;96994.41;10292550;28;20058;-59
2021/12/08 10:10:09;;;;;;;95.75;69.60;;;;;;;4.15;85.47;96997.16;10292152;28;20069;-59
2021/12/08 10:15:11;;;;;;;69.95;52.50;;;;;;;4.21;83.58;96992.09;10291944;28;20057;-59
2021/12/08 10:20:12;;;;;;;66.88;49.35;;;;;;;4.35;82.85;96984.53;10291882;28;20073;-59
2021/12/08 10:25:20;;;;;;;68.32;51.03;;;;;;;4.47;83.22;96983.81;10291162;28;20502;-59
2021/12/08 10:30:23;;;;;;;68.35;51.92;;;;;;;4.67;82.77;96982.31;10291428;28;20057;-59
2021/12/08 10:35:43;;;;;;;43.33;31.10;;;;;;;4.77;82.04;96974.69;10290006;28;20056;-59
2021/12/08 10:41:00;;;;;;;49.60;35.58;;;;;;;4.76;81.93;96975.53;10290679;28;20057;-59
2021/12/08 10:46:07;;;;;;;52.80;40.13;;;;;;;4.97;81.82;96973.19;10290687;28;20072;-59
2021/12/08 10:56:40;;;;;;;53.67;39.70;;;;;;;4.45;79.44;96931.56;10289768;28;20069;-59
2021/12/08 11:01:39;;;;;;;54.10;39.90;;;;;;;4.23;80.18;96954.44;10290365;28;20080;-59
2021/12/08 11:06:39;;;;;;;46.28;32.42;;;;;;;4.32;80.61;96950.28;10290727;28;20030;-59
2021/12/08 11:11:43;;;;;;;52.40;38.00;;;;;;;4.21;80.99;96961.28;10290377;28;20488;-59
2021/12/08 11:16:44;;;;;;;61.00;45.30;;;;;;;4.12;80.58;96956.03;10288465;28;20132;-59
2021/12/08 11:21:50;;;;;;;49.40;33.67;;;;;;;4.02;80.34;96943.94;10290202;28;20503;-59
2021/12/08 11:26:52;;;;;;;56.40;41.30;;;;;;;3.86;80.77;96938.63;10289535;28;20084;-59
2021/12/08 11:31:58;;;;;;;58.03;41.75;;;;;;;3.85;81.17;96949.75;10290105;28;20069;-59
2021/12/08 11:37:05;;;;;;;62.95;46.40;;;;;;;3.59;81.61;96892.97;10289457;28;20510;-59
2021/12/08 11:42:12;;;;;;;70.85;49.50;;;;;;;3.81;81.06;96945.41;10290117;28;20065;-59
2021/12/08 11:47:25;;;;;;;71.85;49.42;;;;;;;3.78;81.67;96947.09;10249310;28;20519;-59
2021/12/08 11:52:29;;;;;;;47.17;32.17;;;;;;;3.44;81.54;96908.16;10265484;28;20073;-59
2021/12/08 11:57:42;;;;;;;31.85;21.17;;;;;;;3.79;80.66;96944.50;10289797;28;20475;-59
2021/12/08 12:02:41;;;;;;;33.25;22.33;;;;;;;3.77;80.48;96940.22;10288016;28;20069;-59
2021/12/08 12:07:40;;;;;;;37.47;24.30;;;;;;;3.60;80.31;96904.94;10295972;28;20045;-59
2021/12/08 12:12:41;;;;;;;28.95;18.02;;;;;;;3.86;79.09;96948.88;10295458;28;20057;-59
2021/12/08 12:17:42;;;;;;;39.17;25.83;;;;;;;3.47;78.63;96891.94;10295191;28;20165;-59
2021/12/08 12:23:05;;;;;;;30.55;19.45;;;;;;;3.35;80.11;96903.75;10296482;28;20061;-59
2021/12/08 12:28:42;;;;;;;27.10;17.35;;;;;;;3.53;78.35;96958.72;10295902;28;20069;-59
2021/12/08 12:33:43;;;;;;;29.13;18.08;;;;;;;3.07;79.70;96888.84;10295479;28;20065;-62
2021/12/08 12:38:43;;;;;;;28.40;16.80;;;;;;;2.40;79.43;96807.56;10295982;28;20065;-59
2021/12/08 12:43:43;;;;;;;26.50;16.98;;;;;;;2.95;78.21;96928.81;10295742;28;20065;-59
2021/12/08 12:48:50;;;;;;;27.58;16.75;;;;;;;2.81;79.60;96912.34;10295873;28;20365;-60
2021/12/08 12:53:55;;;;;;;31.67;18.98;;;;;;;3.11;79.37;96960.66;10295153;28;20074;-59
2021/12/08 12:58:56;;;;;;;29.05;17.63;;;;;;;3.12;78.94;96993.19;10293604;28;20581;-59
2021/12/08 13:04:07;;;;;;;31.40;19.27;;;;;;;3.17;79.38;97006.06;10295055;28;20467;-60
2021/12/08 13:09:10;;;;;;;31.60;18.67;;;;;;;2.85;77.90;96967.94;10294665;28;20065;-59
2021/12/08 13:14:20;;;;;;;31.25;18.30;;;;;;;3.05;79.19;97009.28;10294612;28;20096;-59
2021/12/08 13:19:38;;;;;;;29.40;19.55;;;;;;;2.87;78.51;96984.22;10293416;28;20061;-59
2021/12/08 13:24:40;;;;;;;32.58;20.30;;;;;;;3.19;77.42;97033.44;10294594;28;20470;-59
2021/12/08 13:29:48;;;;;;;29.55;17.75;;;;;;;3.06;79.19;97022.97;10292012;28;20077;-59
2021/12/08 13:34:58;;;;;;;29.55;17.75;;;;;;;2.87;77.51;97027.78;10294258;28;20065;-59
2021/12/08 13:40:07;;;;;;;26.50;17.20;;;;;;;2.88;79.33;97042.31;10292176;28;20065;-59
2021/12/08 13:45:12;;;;;;;32.80;21.47;;;;;;;2.71;78.75;97033.47;10293492;28;20455;-59
2021/12/08 13:50:25;;;;;;;29.83;19.08;;;;;;;2.71;77.89;97043.72;10292772;28;20077;-59
2021/12/08 13:55:27;;;;;;;29.05;18.00;;;;;;;2.64;79.03;97054.69;10292897;28;20057;-59
2021/12/08 14:00:34;;;;;;;27.73;18.30;;;;;;;2.55;79.08;97060.47;10293441;28;20072;-59
2021/12/08 14:05:36;;;;;;;32.05;19.58;;;;;;;2.44;78.91;97057.72;10291931;28;20061;-59
2021/12/08 14:10:38;;;;;;;29.80;17.23;;;;;;;2.46;78.35;97061.16;10292233;28;20069;-59
2021/12/08 14:15:49;;;;;;;27.70;17.33;;;;;;;2.15;78.68;97034.09;10292004;28;20065;-59
2021/12/08 14:21:04;;;;;;;30.73;17.63;;;;;;;2.26;78.68;97076.13;10291935;28;20511;-59
2021/12/08 14:26:09;;;;;;;30.30;18.60;;;;;;;2.25;78.63;97076.94;10291137;28;20069;-59
2021/12/08 14:31:14;;;;;;;27.40;16.77;;;;;;;2.18;78.62;97072.53;10290399;28;20499;-59
2021/12/08 14:36:13;;;;;;;30.02;19.52;;;;;;;1.95;78.57;97065.25;10291156;28;20064;-59
2021/12/08 14:41:23;;;;;;;33.80;20.80;;;;;;;1.81;78.94;97076.00;10289790;28;20065;-59
2021/12/08 14:46:24;;;;;;;35.95;21.35;;;;;;;1.23;79.58;96986.06;10291116;28;20066;-59
2021/12/08 14:51:25;;;;;;;38.97;23.60;;;;;;;1.50;80.26;97047.19;10290364;28;20073;-59
2021/12/08 14:56:24;;;;;;;39.30;22.92;;;;;;;1.54;80.03;97075.41;10290905;28;20061;-59
2021/12/08 15:01:23;;;;;;;36.50;20.70;;;;;;;1.36;80.55;97071.56;10290193;28;20069;-59
2021/12/08 15:06:24;;;;;;;32.53;18.25;;;;;;;1.24;80.64;97057.66;10290683;28;20151;-59
2021/12/08 15:11:26;;;;;;;39.88;23.02;;;;;;;1.31;80.72;97077.41;10290530;28;20061;-59
2021/12/08 15:16:25;;;;;;;30.45;19.48;;;;;;;1.20;80.93;97083.09;10290029;28;20069;-59
2021/12/08 15:21:39;;;;;;;31.42;20.25;;;;;;;1.14;81.41;97078.72;10288773;28;20136;-59
2021/12/08 15:26:39;;;;;;;36.60;21.27;;;;;;;1.09;81.55;97078.59;10290567;28;20456;-59
2021/12/08 15:31:38;;;;;;;37.95;22.73;;;;;;;0.99;81.54;97073.19;10290239;28;20088;-59
2021/12/08 15:36:37;;;;;;;43.00;24.27;;;;;;;0.88;81.76;97081.47;10289492;28;20050;-59
2021/12/08 15:41:39;;;;;;;50.97;28.02;;;;;;;0.77;82.30;97098.19;10294500;28;20076;-59
2021/12/08 15:46:40;;;;;;;49.83;28.42;;;;;;;0.68;82.55;97108.16;10297975;28;20057;-59
2021/12/08 15:51:41;;;;;;;32.40;19.23;;;;;;;0.52;82.90;97078.78;10288488;28;20076;-59
2021/12/08 15:56:42;;;;;;;27.83;15.98;;;;;;;0.46;83.06;97076.94;10296166;28;20064;-59
2021/12/08 16:01:44;;;;;;;36.17;21.05;;;;;;;0.69;82.97;97104.78;10291640;28;20491;-59
2021/12/08 16:06:49;;;;;;;44.30;25.83;;;;;;;0.57;82.71;97084.91;10296778;28;20053;-59
2021/12/08 16:11:56;;;;;;;42.95;28.35;;;;;;;0.65;83.19;97118.28;10296011;28;20057;-59
2021/12/08 16:17:23;;;;;;;45.35;29.67;;;;;;;0.62;83.52;97128.44;10296013;28;20732;-59
2021/12/08 16:22:24;;;;;;;81.47;53.05;;;;;;;0.48;83.94;97121.25;10294523;28;20144;-59
2021/12/08 16:27:28;;;;;;;102.00;62.90;;;;;;;0.48;83.43;97141.66;10295776;28;20053;-59
2021/12/08 16:32:28;;;;;;;88.05;53.42;;;;;;;0.40;84.00;97132.91;10295624;28;20064;-59
2021/12/08 16:37:27;;;;;;;78.88;48.55;;;;;;;0.32;84.38;97139.50;10295037;28;20065;-59
2021/12/08 16:47:46;;;;;;;75.28;41.67;;;;;;;0.21;84.36;97151.06;10294598;28;20069;-59
2021/12/08 16:52:45;;;;;;;74.72;44.08;;;;;;;0.13;84.31;97138.09;10291927;28;20084;-59
2021/12/08 16:57:46;;;;;;;76.93;48.38;;;;;;;0.05;84.54;97145.53;10293498;28;20058;-59
2021/12/08 17:02:45;;;;;;;79.53;45.67;;;;;;;-0.01;85.08;97140.22;10292479;28;20077;-59
2021/12/08 17:07:44;;;;;;;105.65;63.60;;;;;;;-0.28;85.57;97114.72;10292559;28;20025;-59
2021/12/08 17:12:43;;;;;;;;;;;;;;;-0.17;86.26;97138.88;10293272;28;20065;-59
2021/12/08 17:17:42;;;;;;;112.20;68.72;;;;;;;-0.12;86.17;97140.72;10292233;28;19968;-59
2021/12/08 17:22:42;;;;;;;110.25;68.70;;;;;;;-0.21;86.38;97142.16;10292144;28;20486;-59
2021/12/08 17:27:41;;;;;;;107.70;64.97;;;;;;;-0.17;86.24;97138.88;10290529;28;20057;-59
2021/12/08 17:32:40;;;;;;;;;;;;;;;-0.22;86.53;97142.13;10292369;28;20045;-59
2021/12/08 17:37:39;;;;;;;40.28;22.65;;;;;;;-0.20;86.82;97143.91;10290876;28;20337;-59
2021/12/08 17:42:38;;;;;;;30.13;18.45;;;;;;;-0.16;87.16;97144.84;10292083;28;20117;-59
2021/12/08 17:47:37;;;;;;;;;;;;;;;-0.14;86.94;97148.31;10291674;28;20517;-59
2021/12/08 17:52:36;;;;;;;53.40;29.00;;;;;;;-0.44;86.92;97071.75;10284825;28;20296;-59
2021/12/08 17:57:35;;;;;;;90.90;55.28;;;;;;;-0.10;86.81;97152.69;10290444;28;20073;-59
2021/12/08 18:02:34;;;;;;;82.35;50.40;;;;;;;-0.08;86.72;97147.66;10290333;28;20037;-59
2021/12/08 18:07:33;;;;;;;106.38;64.35;;;;;;;-0.11;85.83;97142.44;10290302;28;20029;-59
2021/12/08 18:12:32;;;;;;;129.95;77.65;;;;;;;-0.14;86.25;97145.75;10291697;28;20188;-59
2021/12/08 18:17:36;;;;;;;175.93;108.78;;;;;;;-0.22;86.15;97134.47;10290992;28;20052;-59
2021/12/08 18:22:35;;;;;;;183.95;110.28;;;;;;;-0.34;86.30;97132.41;10284681;28;20065;-59
2021/12/08 18:27:35;;;;;;;182.98;109.22;;;;;;;-0.64;86.33;97099.16;10289023;28;20167;-59
2021/12/08 18:32:34;;;;;;;;;;;;;;;-0.46;86.20;97148.19;10290019;28;20068;-59
2021/12/08 18:37:33;;;;;;;185.43;111.32;;;;;;;-0.70;86.80;97101.50;10289362;28;19920;-62
2021/12/08 18:42:32;;;;;;;126.10;74.13;;;;;;;-0.77;86.92;97092.78;10289942;28;20060;-59
2021/12/08 18:47:31;;;;;;;152.82;91.10;;;;;;;-0.55;87.09;97135.13;10289514;28;20548;-59
2021/12/08 18:52:30;;;;;;;86.78;47.60;;;;;;;-0.77;86.89;97110.63;10283162;28;20624;-59
2021/12/08 18:57:29;;;;;;;80.03;46.47;;;;;;;-0.90;86.91;97095.78;10289031;28;20069;-59
2021/12/08 19:02:29;;;;;;;79.13;45.60;;;;;;;-0.65;86.74;97135.63;10288789;28;20466;-59
2021/12/08 19:07:29;;;;;;;76.15;44.60;;;;;;;-0.54;86.67;97157.25;10288066;28;20511;-59
2021/12/08 19:12:28;;;;;;;;;;;;;;;-0.58;87.22;97163.03;10289542;28;20504;-59
2021/12/08 19:17:29;;;;;;;42.83;25.30;;;;;;;-0.82;87.09;97125.75;10287343;28;20359;-59
2021/12/08 19:22:30;;;;;;;46.58;27.02;;;;;;;-0.53;87.53;97163.19;10283422;28;20065;-59
2021/12/08 19:27:29;;;;;;;173.05;93.10;;;;;;;-0.56;87.56;97169.06;10288686;28;20061;-59
2021/12/08 19:32:28;;;;;;;195.02;113.47;;;;;;;-0.64;87.10;97176.47;10288167;28;20447;-59
2021/12/08 19:37:27;;;;;;;188.70;114.60;;;;;;;-0.61;87.05;97180.78;10288459;28;20492;-59
2021/12/08 19:42:26;;;;;;;161.00;95.95;;;;;;;-1.01;87.25;97121.72;10280108;28;20455;-59
2021/12/08 19:47:25;;;;;;;173.20;101.10;;;;;;;-1.57;87.00;97033.25;10286194;28;20065;-59
2021/12/08 19:52:24;;;;;;;173.15;99.03;;;;;;;-0.85;87.79;97168.09;10287026;28;20129;-59
2021/12/08 19:57:23;;;;;;;154.43;89.95;;;;;;;-0.81;87.28;97178.44;10282296;28;20056;-59
2021/12/08 20:02:23;;;;;;;102.28;60.17;;;;;;;-0.94;87.91;97196.66;10287428;28;20080;-59
2021/12/08 20:07:21;;;;;;;;;;;;;;;-0.98;87.75;97177.00;10287851;28;20069;-59
2021/12/08 20:12:20;;;;;;;128.45;66.35;;;;;;;-1.04;87.50;97176.78;10287272;28;19909;-59
2021/12/08 20:17:19;;;;;;;86.82;48.35;;;;;;;-1.45;87.17;97110.88;10287143;28;20534;-59
2021/12/08 20:22:18;;;;;;;72.30;42.13;;;;;;;-1.10;87.50;97181.66;10286937;28;20511;-59
2021/12/08 20:27:19;;;;;;;62.47;37.90;;;;;;;-1.28;87.36;97154.75;10286208;28;20340;-59
2021/12/08 20:32:17;;;;;;;75.40;40.70;;;;;;;-1.15;88.36;97173.88;10294112;28;20215;-59
2021/12/08 20:37:17;;;;;;;69.93;41.53;;;;;;;-1.33;88.11;97135.91;10294181;28;20289;-59
2021/12/08 20:42:17;;;;;;;64.47;37.53;;;;;;;-1.38;88.36;97114.50;10293848;28;20547;-59
2021/12/08 20:47:16;;;;;;;80.57;44.50;;;;;;;-1.23;88.28;97135.41;10293563;28;20511;-59
2021/12/08 20:52:15;;;;;;;92.78;50.22;;;;;;;-1.37;88.51;97107.75;10291024;28;20085;-59
2021/12/08 20:57:16;;;;;;;111.80;62.53;;;;;;;-1.53;88.21;97081.75;10287926;28;20518;-59
2021/12/08 21:02:16;;;;;;;122.22;68.47;;;;;;;-1.05;87.97;97162.31;10286707;28;20068;-59
2021/12/08 21:07:15;;;;;;;313.20;174.13;;;;;;;-1.10;88.19;97166.38;10292844;28;20068;-59
2021/12/08 21:12:14;;;;;;;208.55;112.18;;;;;;;-1.16;88.09;97163.66;10292367;28;20065;-59
2021/12/08 21:17:13;;;;;;;160.18;88.03;;;;;;;-1.29;88.01;97172.50;10292459;28;20061;-59
2021/12/08 21:22:13;;;;;;;117.82;67.43;;;;;;;-1.78;88.56;97102.91;10291699;28;20038;-59
2021/12/08 21:27:12;;;;;;;;;;;;;;;-1.48;89.46;97176.06;10292553;28;20061;-59
2021/12/08 21:32:11;;;;;;;64.95;37.58;;;;;;;-1.48;88.64;97165.91;10292384;28;19920;-59
2021/12/08 21:37:10;;;;;;;;;;;;;;;-1.46;88.57;97154.09;10292081;28;20061;-59
2021/12/08 21:42:09;;;;;;;57.33;32.17;;;;;;;-2.07;88.61;97056.94;10291479;28;20391;-59
2021/12/08 21:47:08;;;;;;;49.28;26.95;;;;;;;-1.69;88.68;97121.03;10291225;28;20066;-59
2021/12/08 21:52:07;;;;;;;43.60;25.80;;;;;;;-1.43;88.01;97154.19;10286727;28;20078;-59
2021/12/08 21:57:07;;;;;;;52.95;29.33;;;;;;;-1.88;88.55;97096.63;10291479;28;20077;-59
2021/12/08 22:02:06;;;;;;;100.43;53.67;;;;;;;-1.59;88.81;97157.00;10290672;28;20133;-59
2021/12/08 22:07:06;;;;;;;108.72;57.22;;;;;;;-1.56;88.30;97154.56;10290937;28;20068;-59
2021/12/08 22:12:10;;;;;;;;;;;;;;;-1.67;89.05;97167.75;10290626;28;20064;-59
2021/12/08 22:17:09;;;;;;;120.90;69.45;;;;;;;-2.10;89.07;97082.25;10288653;28;19945;-59
2021/12/08 22:22:08;;;;;;;118.05;71.63;;;;;;;-2.00;89.05;97087.69;10285549;28;20128;-59
2021/12/08 22:27:09;;;;;;;162.00;90.25;;;;;;;-1.75;88.54;97147.94;10289962;28;20061;-59
2021/12/08 22:32:08;;;;;;;103.60;55.70;;;;;;;-2.19;89.10;97097.16;10290109;28;20453;-59
2021/12/08 22:37:08;;;;;;;61.30;32.92;;;;;;;-1.83;88.79;97137.47;10289988;28;20033;-59
2021/12/08 22:42:07;;;;;;;48.08;25.83;;;;;;;-1.80;88.77;97144.34;10289655;28;20092;-59
2021/12/08 22:47:08;;;;;;;;;;;;;;;-1.84;89.04;97156.09;10288719;28;20072;-59
2021/12/08 22:52:07;;;;;;;67.40;35.67;;;;;;;-1.89;88.46;97137.25;10282994;28;19964;-59
2021/12/08 22:57:06;;;;;;;59.75;33.65;;;;;;;-1.82;88.44;97143.44;10289361;28;20030;-59
2021/12/08 23:02:05;;;;;;;69.43;37.25;;;;;;;-1.97;89.20;97133.56;10288766;28;20065;-59
2021/12/08 23:07:04;;;;;;;76.30;39.00;;;;;;;-2.10;89.28;97125.47;10289768;28;20064;-59
2021/12/08 23:12:05;;;;;;;75.07;37.50;;;;;;;-2.11;89.57;97133.88;10289773;28;20065;-59
2021/12/08 23:17:04;;;;;;;80.65;41.47;;;;;;;-2.10;89.69;97133.09;10289181;28;20091;-59
2021/12/08 23:22:04;;;;;;;75.93;39.13;;;;;;;-3.06;89.45;96984.56;10289268;28;20061;-59
2021/12/08 23:27:03;;;;;;;;;;;;;;;-1.98;89.80;97142.00;10285901;28;20515;-59
2021/12/08 23:32:03;;;;;;;46.25;22.45;;;;;;;-1.81;90.19;97151.13;10288339;28;20350;-59
2021/12/08 23:37:02;;;;;;;43.92;23.02;;;;;;;-1.81;89.59;97140.94;10290025;28;20157;-59
2021/12/08 23:42:02;;;;;;;;;;;;;;;-1.75;89.47;97171.72;10289675;28;20455;-59
2021/12/08 23:47:02;;;;;;;64.88;34.88;;;;;;;-1.75;89.11;97170.81;10289375;28;19957;-59
2021/12/08 23:52:01;;;;;;;94.90;51.35;;;;;;;-1.74;89.18;97178.53;10289369;28;20073;-59
2021/12/08 23:57:02;;;;;;;121.18;66.05;;;;;;;-1.73;89.54;97172.59;10283159;28;20069;-59
